WEATHER DATA

YESTERDAY
Time Temp. Dewp. Hum. Wind dir Wind speed Wind gust Bar.
00:01 12 8.7 80 0 0 1023.5
00:11 11.9 8.6 80 0 0 1023.4
00:21 11.7 8.4 80 0 0 1023.3
00:31 11.5 8.2 80 0 0 1023.2
00:41 11.4 8.3 81 0 0 1023.3
00:51 11.3 8.2 81 0 0 1023.2
01:01 11.1 8 81 0 0 1023.3
01:11 11.1 8 81 0 0 1023.3
01:21 11 7.9 81 0 0 1023.3
01:31 10.9 8 82 0 0 1023.4
01:41 10.8 7.9 82 0 0 1023.3
01:52 10.7 7.8 82 0 0 1023.4
02:02 10.6 7.7 82 0 0 1023.4
02:11 10.5 7.6 82 0 0 1023.5
02:22 10.4 7.6 83 0 0 1023.5
02:32 10.4 7.8 84 0 0 1023.4
02:42 10.5 7.9 84 0 0 1023.4
02:51 10.5 8.1 85 0 0 1023.3
03:02 10.6 8.2 85 0 0 1023.3
03:12 10.7 8.3 85 0 0 1023.2
03:22 10.7 8.3 85 0 0 1023.2
03:32 10.7 8.3 85 0 0 1023.3
03:42 10.7 8.3 85 0 0 1023.2
03:52 10.7 8.3 85 0 0 1023.1
04:02 10.7 8.3 85 0 0 1023.1
04:13 10.6 8.2 85 0 0 1023.1
04:22 10.5 7.9 84 0 0 1023
04:32 10.3 7.7 84 0 0 1023
04:43 10.2 7.6 84 0 0 1023.1
04:53 10.1 7.5 84 0 0 1023.2
05:03 10 7.4 84 0 0 1023.2
05:12 9.8 7.2 84 0 0 1023.3
05:23 9.7 7.1 84 0 0 1023.4
05:33 9.7 7.1 84 0 0 1023.3
06:03 9.4 6.8 84 0 0 1023.5
06:13 9.4 6.8 84 0 0 1023.6
06:23 9.4 6.8 84 0 0 1023.6
06:34 9.3 6.7 84 0 0 1023.6
06:43 9.3 6.7 84 0 0 1023.8
06:53 9.3 6.7 84 0 0 1023.8
07:04 9.2 6.6 84 0 0 1023.9
07:14 9.2 6.6 84 0 0 1024.1
07:23 9.1 6.5 84 0 0 1024.2
07:33 9.2 6.8 85 0 0 1024.3
07:44 9.2 6.8 85 0 0 1024.4
07:54 9.3 6.9 85 0 0 1024.5
08:04 9.5 7.1 85 0 0 1024.7
08:14 9.7 7.3 85 0 0 1024.7
08:24 9.9 7.5 85 0 0 1024.9
08:34 10.1 7.7 85 0 0 1025
08:44 10.5 8.1 85 0 0 1025.1
08:54 10.8 8.4 85 0 0 1025.3
09:04 11.3 8.7 84 0 0 1025.4
09:14 12 9.2 83 0 0 1025.5
09:25 12.8 9.6 81 0 0 1025.7
09:35 13.6 9.8 78 0 0 1025.8
09:44 14.2 9.8 75 0 0 1025.9
09:54 15 10.2 73 0 0 1026
10:05 15.6 10.6 72 0 0 1026
10:15 16.3 10.8 70 0 0 1026.1
10:25 16.9 11 68 0 0 1026
10:35 17.4 11 66 0 0 1025.9
10:45 18 11.1 64 0 0 1025.8
10:55 18.5 11.1 62 0 0 1025.8
11:05 18.9 11 60 0 0 1025.8
11:15 19.4 11.2 59 0 0 1025.7
11:25 20 11.8 59 0 0 1025.7
11:35 20.6 11.8 57 0 0 1025.5
11:46 21.2 11.3 53 0 0 1025.5
11:56 21.6 11.3 52 0 0 1025.4
12:05 22 11.1 50 0 0 1025.3
12:15 22.4 11.2 49 0 0 1025.2
12:26 22.6 11.4 49 0 0 1025.2
12:36 22.9 11.3 48 0 0 1025.1
12:45 23.2 11 46 0 0 1024.9
12:56 23.5 10.9 45 0 0 1024.8
13:06 23.9 10.9 44 0 0 1024.7
13:16 24.2 10.8 43 0 0 1024.6
13:26 24.3 10.6 42 0 0 1024.7
13:36 24.6 9.7 39 0 0 1024.6
13:46 24.7 9.8 39 0 0 1024.5
13:56 24.7 9.4 38 0 0 1024.4
14:07 24.4 8.8 37 0 0 1024.3
14:16 24.1 8.5 37 0 0 1024.3
14:26 23.7 8.2 37 0 0 1024.1
14:36 23.4 8.3 38 0 0 1024.1
14:47 23.1 8.4 39 0 0 1024.1
14:57 22.9 7.8 38 0 0 1023.9
15:06 22.8 8.1 39 0 0 1023.9
15:17 22.7 7.7 38 0 0 1023.9
15:27 22.7 7.3 37 0 0 1023.9
15:37 22.8 7.8 38 0 0 1024
15:46 23.1 8 38 0 0 1023.8
15:57 23.4 7.9 37 0 0 1023.8
16:07 23.9 8.7 38 0 0 1023.8
16:17 24.2 8.2 36 0 0 1023.7
16:27 24.5 8.5 36 0 0 1023.7
16:37 24.7 8.2 35 0 0 1023.7
16:47 24.7 8.2 35 0 0 1023.6
16:57 24.6 8.1 35 0 0 1023.6
17:08 24.3 7.9 35 0 0 1023.5
17:17 24 7.6 35 0 0 1023.6
17:27 23.6 7.3 35 0 0 1023.7
17:38 23.3 7.4 36 0 0 1023.6
17:48 23 7.1 36 0 0 1023.6
17:58 22.7 6.9 36 0 0 1023.7
18:07 22.5 7.1 37 0 0 1023.8
18:18 22.2 6.8 37 0 0 1023.8
18:28 21.9 7 38 0 0 1023.7
18:38 21.6 10.7 50 0 0 1023.7
18:48 21.2 11.8 55 0 0 1023.7
18:58 20.7 11.6 56 0 0 1023.8
19:08 20.4 11.9 58 0 0 1023.7
19:18 20 11.5 58 0 0 1023.7
19:29 19.7 11.2 58 0 0 1023.8
19:38 19.5 11.3 59 0 0 1023.9
19:48 19.2 11.3 60 0 0 1023.9
19:59 19 11.6 62 0 0 1024
20:09 18.8 11.6 63 0 0 1024.1
20:18 18.7 11.5 63 0 0 1024.3
20:28 18.5 11.3 63 0 0 1024.4
20:39 18.4 11.2 63 0 0 1024.4
20:49 18.2 11 63 0 0 1024.3
20:59 18 10.9 63 0 0 1024.4
21:09 17.8 10.9 64 0 0 1024.5
21:19 17.6 11 65 0 0 1024.6
21:29 17.3 10.9 66 0 0 1024.7
21:39 17.1 10.7 66 0 0 1024.6
21:50 16.9 10.5 66 0 0 1024.7
21:58 16.7 10.5 67 0 0 1024.7
22:09 16.5 10.4 67 0 0 1024.7
22:20 16.4 10.5 68 0 0 1024.8
22:30 16.3 10.6 69 0 0 1024.8
22:39 16.1 10.4 69 0 0 1024.7
22:49 15.9 10.2 69 0 0 1024.9
23:00 15.6 9.9 69 0 0 1024.9
23:10 15.3 9.9 70 0 0 1024.9
23:20 15 9.8 71 0 0 1024.9
23:30 14.8 9.8 72 0 0 1024.9
23:40 14.5 9.7 73 0 0 1025
23:50 14.2 9.6 74 0 0 1025

DAY STATISTIC

2022-09-24
TEMPERATURE
AVERAGE
16.5
HIGH
24.7
13:46
LOW
9.1
07:23
PRESSURE
AVERAGE
1024.2
HIGH
1026.1
10:15
LOW
1023.0
04:22
DEWPOINT
AVERAGE
9.0
HIGH
11.9
19:08
LOW
6.5
07:23
HUMIDITY
AVERAGE
65
HIGH
85
02:51
LOW
35
16:37
WIND SPEED
AVERAGE
0.0
HIGH
0.0
04:45
WIND GUST
AVERAGE
0.0
HIGH
0.0
04:45
WIND DIRECTION
PREVAILING
%
TEMPERATURE (°C)
LOW
9.1
HIGH
24.7
AVERAGE
16.5
PRESSURE (hpa)
LOW
1023.0
HIGH
1026.1
AVERAGE
1024.2
DEVICE